| Date | Time | Temp. (oF) | Dew Point (oF) | Rel. Hum. (%) | Press. (in.) | Wind Dir. | Wind Speed (mph) | Hourly Rainfall (in.) |
|
|---|---|---|---|---|---|---|---|---|---|
| 1 | 03/09 | 00:00 | 17 | 2 | 53 | 29.75 | W | 15 | 0.00 |
| 2 | 03/08 | 23:00 | 18 | 4 | 55 | 29.71 | W | 10 | 0.00 |
| 3 | 03/08 | 22:00 | 19 | 3 | 51 | 29.70 | WNW | 20 | 0.00 |
| 4 | 03/08 | 21:00 | 20 | 4 | 50 | 29.66 | NW | 24 | 0.00 |
| 5 | 03/08 | 20:00 | 22 | 4 | 46 | 29.61 | NNW | 27 | 0.00 |
| 6 | 03/08 | 19:00 | 23 | 6 | 48 | 29.55 | WNW | 25 | 0.00 |
| 7 | 03/08 | 18:00 | 25 | 10 | 54 | 29.50 | WSW | 12 | 0.00 |
| 8 | 03/08 | 17:00 | 27 | 12 | 55 | 29.43 | WNW | 18 | 0.00 |
| 9 | 03/08 | 16:00 | 27 | 14 | 59 | 29.38 | NW | 15 | 0.00 |
| 10 | 03/08 | 15:00 | 26 | 17 | 69 | 29.33 | WNW | 18 | 0.00 |
| 11 | 03/08 | 14:00 | 25 | 18 | 77 | 29.28 | WNW | 20 | 0.00 |
| 12 | 03/08 | 13:00 | 24 | 19 | 83 | 29.28 | NNW | 13 | 0.00 |
| 13 | 03/08 | 12:00 | 23 | 22 | 98 | 29.29 | NNW | 14 | 0.00 |
| 14 | 03/08 | 11:00 | 26 | 26 | 100 | 29.28 | NW | 14 | 0.00 |
| 15 | 03/08 | 10:00 | 31 | 31 | 100 | 29.24 | NW | 13 | 0.03 |
| 16 | 03/08 | 09:00 | 35 | 35 | 100 | 29.23 | NW | 10 | 0.00 |
| 17 | 03/08 | 08:00 | 38 | 37 | 98 | 29.20 | N | 15 | 0.05 |
| 18 | 03/08 | 07:00 | 44 | 43 | 99 | 29.19 | NNW | 12 | 0.00 |
| 19 | miss | miss | miss | miss | miss | miss | miss | miss | |
| 20 | 03/08 | 06:06 | 46 | 44 | 96 | 29.19 | WNW | 4 | 0.00 |
| 21 | miss | miss | miss | miss | miss | miss | miss | miss | |
| 22 | 03/08 | 06:04 | 46 | 44 | 96 | 29.19 | NW | 6 | 0.00 |
| 23 | miss | miss | miss | miss | miss | miss | miss | miss | |
| 24 | 03/08 | 06:02 | 46 | 44 | 96 | 29.19 | NW | 4 | 0.00 |
| 25 | miss | miss | miss | miss | miss | miss | miss | miss | |
| 26 | 03/08 | 06:01 | 46 | 44 | 96 | 29.19 | NNW | 4 | 0.00 |
| 27 | miss | miss | miss | miss | miss | miss | miss | miss | |
| 28 | 03/08 | 06:01 | 46 | 44 | 96 | 29.19 | NNW | 4 | 0.00 |
| 29 | miss | miss | miss | miss | miss | miss | miss | miss | |
| 30 | 03/08 | 06:01 | 46 | 44 | 96 | 29.19 | NNW | 4 | 0.00 |
| 31 | miss | miss | miss | miss | miss | miss | miss | miss | |
| 32 | 03/08 | 06:01 | 46 | 44 | 96 | 29.19 | NNW | 4 | 0.00 |
| 33 | miss | miss | miss | miss | miss | miss | miss | miss | |
| 34 | 03/08 | 06:01 | 46 | 44 | 96 | 29.19 | NNW | 4 | 0.00 |
| 35 | miss | miss | miss | miss | miss | miss | miss | miss | |
| 36 | 03/08 | 06:01 | 46 | 44 | 96 | 29.19 | NNW | 4 | 0.00 |
| 37 | miss | miss | miss | miss | miss | miss | miss | miss | |
| 38 | 03/08 | 06:01 | 46 | 44 | 96 | 29.19 | NNW | 4 | 0.00 |
| 39 | miss | miss | miss | miss | miss | miss | miss | miss | |
| 40 | 03/08 | 06:01 | 46 | 44 | 96 | 29.19 | NNW | 4 | 0.00 |
| 41 | miss | miss | miss | miss | miss | miss | miss | miss | |
| 42 | 03/08 | 06:01 | 46 | 44 | 96 | 29.19 | NNW | 4 | 0.00 |
| 43 | 03/08 | 06:00 | 46 | 44 | 96 | 29.19 | NNW | 5 | 0.02 |
| 44 | 03/08 | 05:00 | 49 | 44 | 86 | 29.18 | WNW | 4 | 0.00 |
| 45 | 03/08 | 04:00 | 50 | 38 | 64 | 29.18 | NW | 5 | 0.00 |
| 46 | 03/08 | 03:00 | 52 | 35 | 54 | 29.21 | SW | 4 | 0.00 |
| 47 | 03/08 | 02:00 | 53 | 34 | 50 | 29.21 | S | 5 | 0.00 |
| 48 | 03/08 | 01:00 | 54 | 34 | 47 | 29.24 | S | 10 | 0.00 |
| 49 | 03/08 | 00:00 | 54 | 35 | 50 | 29.28 | S | 7 | -0.15 |
| 50 | 03/07 | 23:00 | 56 | 37 | 50 | 29.32 | S | 11 | 0.00 |
| 51 | 03/07 | 22:00 | 56 | 37 | 50 | 29.35 | S | 2 | 0.00 |
| 52 | 03/07 | 21:00 | 58 | 37 | 46 | 29.37 | SSE | 2 | 0.00 |
| 53 | 03/07 | 20:00 | 58 | 36 | 44 | 29.39 | S | 4 | 0.00 |
| 54 | 03/07 | 19:00 | 58 | 36 | 44 | 29.40 | S | 5 | 0.00 |
| 55 | 03/07 | 18:00 | 60 | 36 | 41 | 29.40 | S | 6 | 0.00 |
| 56 | 03/07 | 17:00 | 64 | 32 | 31 | 29.40 | SSE | 7 | 0.00 |
| 57 | 03/07 | 16:00 | 63 | 36 | 38 | 29.42 | SSW | 12 | 0.00 |
| 58 | 03/07 | 15:00 | 67 | 31 | 27 | 29.43 | SSW | 13 | 0.00 |
| 59 | 03/07 | 14:00 | 66 | 32 | 29 | 29.49 | S | 12 | 0.00 |
| 60 | 03/07 | 13:00 | 64 | 34 | 33 | 29.55 | SSE | 9 | 0.00 |
| 61 | 03/07 | 12:00 | 63 | 37 | 39 | 29.60 | SE | 16 | 0.00 |
| 62 | 03/07 | 11:00 | 58 | 36 | 45 | 29.65 | S | 12 | 0.00 |
| 63 | 03/07 | 10:00 | 55 | 36 | 50 | 29.69 | SW | 8 | 0.00 |
| 64 | 03/07 | 09:00 | 50 | 35 | 58 | 29.72 | SSW | 9 | 0.00 |
| 65 | 03/07 | 08:00 | 44 | 34 | 70 | 29.73 | SSE | 4 | 0.00 |
| 66 | 03/07 | 006:59 | 2 | -4 | 74 | 37.00 | 07:00 | 3 | 8.00 |
| 67 | 03/07 | 06:00 | 35 | 32 | 90 | 29.74 | SW | 0 | 0.00 |
| 68 | 03/07 | 05:00 | 34 | 31 | 91 | 29.76 | SSW | 0 | 0.00 |
| 69 | 03/07 | 04:00 | 34 | 31 | 91 | 29.76 | N | 0 | 0.00 |
| 70 | 03/07 | 03:00 | 33 | 29 | 88 | 29.76 | WSW | 0 | 0.00 |
| 71 | 03/07 | 02:00 | 34 | 30 | 87 | 29.76 | WSW | 0 | 0.00 |
| 72 | 03/07 | 01:00 | 35 | 30 | 84 | 29.76 | WSW | 0 | 0.00 |
| 73 | 03/07 | 00:00 | 36 | 30 | 80 | 29.74 | WSW | 1 | 0.00 |